Time;durP1;ratioP1;P1;durP2;ratioP2;P2;SDS_P1;SDS_P2;PMS_P1;PMS_P2;Temp;Humidity;BMP_temperature;BMP_pressure;BME280_temperature;BME280_humidity;BME280_pressure;Samples;Min_cycle;Max_cycle;Signal;HPM_P1;HPM_P2
2023/09/29 00:00:24;;;;;;;;;33.75;31.00;;;;;18.82;39.62;99826.06;4968096;28;8859;-75
2023/09/29 00:03:15;;;;;;;;;37.20;32.80;;;;;18.82;39.46;99822.50;4969046;28;8840;-76
2023/09/29 00:05:44;;;;;;;;;34.75;31.50;;;;;18.81;39.21;99818.16;4977070;28;8863;-75
2023/09/29 00:08:16;;;;;;;;;34.00;29.60;;;;;18.79;39.27;99817.38;4953330;28;8887;-75
2023/09/29 00:10:45;;;;;;;;;30.60;30.60;;;;;18.74;39.13;99826.41;4956603;28;8855;-75
2023/09/29 00:13:14;;;;;;;;;33.20;27.80;;;;;18.71;39.21;99815.91;4968934;28;8949;-77
2023/09/29 00:15:43;;;;;;;;;28.20;25.80;;;;;18.69;38.26;99820.47;4966992;28;8882;-75
2023/09/29 00:18:15;;;;;;;;;28.20;27.60;;;;;18.69;37.94;99822.28;4950311;28;8882;-76
2023/09/29 00:20:44;;;;;;;;;24.80;23.40;;;;;18.67;37.61;99814.34;4918254;28;8868;-75
2023/09/29 00:23:13;;;;;;;;;26.00;25.20;;;;;18.67;37.20;99809.03;4968668;28;8864;-76
2023/09/29 00:25:42;;;;;;;;;24.40;24.40;;;;;18.67;37.18;99814.34;4952070;28;9035;-73
2023/09/29 00:28:11;;;;;;;;;25.60;24.60;;;;;18.70;37.20;99810.66;4970203;28;9030;-73
2023/09/29 00:30:40;;;;;;;;;20.80;20.20;;;;;18.71;37.00;99820.38;4972006;28;8855;-76
2023/09/29 00:33:09;;;;;;;;;26.80;23.60;;;;;18.70;36.72;99813.31;4970335;28;9625;-74
2023/09/29 00:35:39;;;;;;;;;20.20;18.60;;;;;18.72;36.35;99807.00;4970122;28;8864;-75
2023/09/29 00:38:09;;;;;;;;;17.60;17.20;;;;;18.71;36.24;99807.94;4921056;28;8873;-75
2023/09/29 00:40:38;;;;;;;;;22.80;21.80;;;;;18.73;36.11;99807.84;4971284;28;8986;-75
2023/09/29 00:43:09;;;;;;;;;16.60;16.20;;;;;18.73;35.92;99802.53;4970415;28;8859;-75
2023/09/29 00:45:39;;;;;;;;;22.40;21.60;;;;;18.75;36.02;99801.50;4971343;28;8867;-76
2023/09/29 00:48:09;;;;;;;;;22.40;22.40;;;;;18.76;35.85;99805.00;4904777;28;1789401;-76
2023/09/29 00:50:40;;;;;;;;;20.20;18.60;;;;;18.80;35.55;99803.09;4935403;28;8881;-75
2023/09/29 00:53:13;;;;;;;;;5.20;4.40;;;;;18.79;35.50;99804.06;4953612;28;8994;-75
2023/09/29 00:55:45;;;;;;;;;18.00;18.00;;;;;18.78;35.33;99795.19;4939798;28;8879;-75
2023/09/29 00:58:17;;;;;;;;;20.40;20.40;;;;;18.78;35.05;99800.50;4984155;28;8889;-74
2023/09/29 01:00:46;;;;;;;;;19.00;17.00;;;;;18.79;35.16;99804.91;5001967;28;8897;-74
2023/09/29 01:03:16;;;;;;;;;22.40;20.20;;;;;18.83;35.84;99806.47;4953470;28;8851;-75
2023/09/29 01:05:49;;;;;;;;;22.20;21.00;;;;;18.87;35.96;99808.03;4972551;28;8875;-74
2023/09/29 01:08:22;;;;;;;;;24.80;22.20;;;;;18.85;36.25;99801.91;4972279;28;8886;-74
2023/09/29 01:10:53;;;;;;;;;22.40;21.40;;;;;18.84;36.82;99808.19;4970959;28;8898;-75
2023/09/29 01:13:23;;;;;;;;;20.40;19.60;;;;;18.86;37.16;99808.13;4971996;28;8871;-76
2023/09/29 01:15:54;;;;;;;;;19.20;19.00;;;;;18.85;37.04;99807.25;4972262;28;8863;-75
2023/09/29 01:18:23;;;;;;;;;18.40;17.00;;;;;18.82;35.81;99809.19;4986785;28;8863;-75
2023/09/29 01:20:54;;;;;;;;;19.00;17.40;;;;;18.81;35.83;99813.66;4970967;28;8848;-74
2023/09/29 01:23:24;;;;;;;;;22.80;21.40;;;;;18.80;36.69;99801.31;4937591;28;8859;-75
2023/09/29 01:25:55;;;;;;;;;23.00;22.00;;;;;18.80;37.28;99809.31;4971853;28;9618;-74
2023/09/29 01:28:25;;;;;;;;;20.20;20.20;;;;;18.72;37.00;99808.78;4971541;28;8885;-74
2023/09/29 01:30:54;;;;;;;;;25.00;23.60;;;;;18.74;37.65;99805.13;4970467;28;8875;-74
2023/09/29 01:33:23;;;;;;;;;21.40;20.80;;;;;18.69;37.25;99811.63;4954555;28;9684;-75
2023/09/29 01:35:52;;;;;;;;;27.00;25.00;;;;;18.61;38.28;99814.66;4970395;28;8970;-75
2023/09/29 01:38:21;;;;;;;;;24.20;20.40;;;;;18.61;38.92;99808.47;4970223;28;8867;-75
2023/09/29 01:40:51;;;;;;;;;22.40;21.00;;;;;18.56;37.91;99816.69;4971775;28;8926;-75
2023/09/29 01:43:23;;;;;;;;;21.00;21.00;;;;;18.50;38.05;99809.00;4969474;28;8897;-75
2023/09/29 01:45:52;;;;;;;;;22.60;19.20;;;;;18.48;38.84;99817.06;4934128;28;8858;-75
2023/09/29 01:48:21;;;;;;;;;21.40;19.40;;;;;18.45;38.91;99813.69;4934518;29;8872;-74
2023/09/29 01:50:50;;;;;;;;;21.00;20.40;;;;;18.34;38.25;99823.06;4931646;29;8864;-74
2023/09/29 01:53:19;;;;;;;;;20.60;20.60;;;;;17.50;39.58;99832.34;4924588;28;8861;-74
2023/09/29 01:55:48;;;;;;;;;17.80;16.20;;;;;17.51;38.93;99832.28;4949544;28;8994;-73
2023/09/29 01:58:17;;;;;;;;;18.20;17.20;;;;;17.61;38.81;99823.84;4933265;28;8882;-70
2023/09/29 02:00:47;;;;;;;;;18.40;16.80;;;;;17.59;38.58;99823.94;4915087;29;8867;-70
2023/09/29 02:03:16;;;;;;;;;20.80;20.20;;;;;17.64;39.46;99819.25;4897670;29;8888;-70
2023/09/29 02:05:46;;;;;;;;;19.40;18.60;;;;;17.47;39.88;99824.47;4929306;29;8870;-71
2023/09/29 02:08:15;;;;;;;;;23.80;21.20;;;;;17.05;40.47;99826.28;4929150;29;8853;-69
2023/09/29 02:10:45;;;;;;;;;18.60;18.60;;;;;16.61;41.75;99832.56;4926392;29;8863;-71
2023/09/29 02:13:15;;;;;;;;;23.40;22.20;;;;;16.22;42.34;99827.91;4881895;29;8888;-71
2023/09/29 02:15:51;;;;;;;;;17.60;17.60;;;;;16.05;42.68;99835.66;4929260;29;8876;-70
2023/09/29 02:18:20;;;;;;;;;20.00;20.00;;;;;15.96;42.45;99836.91;4951281;28;8865;-69
2023/09/29 02:20:50;;;;;;;;;19.60;19.60;;;;;15.95;42.55;99834.31;4970031;28;8926;-70
2023/09/29 02:23:20;;;;;;;;;21.80;20.20;;;;;15.92;43.03;99829.97;4967176;28;8861;-69
2023/09/29 02:25:51;;;;;;;;;20.40;19.60;;;;;16.10;42.57;99836.34;4964309;28;8860;-71
2023/09/29 02:28:19;;;;;;;;;21.00;20.00;;;;;16.06;42.10;99834.75;4962599;28;8845;-70
2023/09/29 02:30:49;;;;;;;;;16.00;16.00;;;;;16.17;41.91;99829.00;4935411;28;8861;-71
2023/09/29 02:33:19;;;;;;;;;21.60;21.60;;;;;16.30;41.89;99832.91;4967098;28;8865;-71
2023/09/29 02:35:50;;;;;;;;;18.00;17.20;;;;;16.46;41.49;99835.00;4964685;28;9665;-70
2023/09/29 02:38:19;;;;;;;;;21.40;20.20;;;;;16.62;40.91;99833.41;4966635;28;8915;-70
2023/09/29 02:40:48;;;;;;;;;18.80;17.80;;;;;16.70;40.55;99839.28;4935329;28;8863;-69
2023/09/29 02:43:17;;;;;;;;;19.20;18.00;;;;;16.85;40.74;99828.94;4950640;28;8871;-69
2023/09/29 02:45:46;;;;;;;;;19.40;18.40;;;;;16.95;40.47;99839.09;4933649;28;8890;-70
2023/09/29 02:48:15;;;;;;;;;22.00;18.00;;;;;16.94;40.99;99839.16;4966307;28;8891;-70
2023/09/29 02:50:45;;;;;;;;;20.00;19.80;;;;;17.01;40.87;99835.31;4934861;28;8870;-70
2023/09/29 02:53:14;;;;;;;;;19.00;19.00;;;;;17.15;41.09;99840.88;4950599;28;8885;-70
2023/09/29 02:55:43;;;;;;;;;17.80;17.80;;;;;17.26;41.00;99839.59;4968950;28;9622;-71
2023/09/29 02:58:12;;;;;;;;;18.60;18.00;;;;;17.25;40.57;99841.41;4967845;28;8890;-72
2023/09/29 03:00:41;;;;;;;;;22.40;20.40;;;;;17.41;41.95;99846.88;4966723;28;8871;-71
2023/09/29 03:03:10;;;;;;;;;26.20;26.20;;;;;17.43;41.90;99844.16;4968196;28;8932;-70
2023/09/29 03:05:43;;;;;;;;;28.80;25.80;;;;;17.48;42.20;99836.84;4967695;28;8866;-71
2023/09/29 03:08:13;;;;;;;;;26.80;25.80;;;;;17.50;42.28;99835.00;4942032;28;8869;-70
2023/09/29 03:10:43;;;;;;;;;27.60;26.80;;;;;17.49;42.63;99842.06;4969237;28;8870;-69
2023/09/29 03:13:13;;;;;;;;;26.80;26.20;;;;;17.57;42.55;99833.75;4969177;28;8879;-71
2023/09/29 03:15:43;;;;;;;;;27.80;26.20;;;;;17.57;42.23;99829.31;4989339;28;8848;-70
2023/09/29 03:18:12;;;;;;;;;51.50;42.00;;;;;17.57;42.57;99826.66;4977242;28;8910;-70
2023/09/29 03:20:41;;;;;;;;;32.60;30.20;;;;;17.54;42.46;99832.09;4967757;28;8868;-71
2023/09/29 03:23:12;;;;;;;;;23.40;22.20;;;;;17.52;42.21;99830.47;4967344;28;8877;-71
2023/09/29 03:25:41;;;;;;;;;24.40;23.80;;;;;17.49;41.66;99822.63;4949989;28;8879;-69
2023/09/29 03:28:10;;;;;;;;;21.80;21.80;;;;;17.47;41.75;99824.47;4961004;28;8885;-70
2023/09/29 03:30:39;;;;;;;;;27.00;24.60;;;;;17.45;41.86;99827.22;4967393;28;10016;-71
2023/09/29 03:33:08;;;;;;;;;22.60;22.60;;;;;17.45;41.57;99823.69;4964991;28;8864;-69
2023/09/29 03:35:37;;;;;;;;;21.40;19.80;;;;;17.43;41.24;99826.41;4968679;28;8877;-78
2023/09/29 03:38:06;;;;;;;;;60.75;47.25;;;;;17.37;40.65;99829.34;4951269;28;9689;-77
2023/09/29 03:40:36;;;;;;;;;62.50;50.00;;;;;17.27;40.83;99834.22;4970171;28;8847;-78
2023/09/29 03:43:05;;;;;;;;;38.75;33.75;;;;;17.10;41.05;99832.28;4969800;28;8974;-78
2023/09/29 03:45:36;;;;;;;;;28.40;27.80;;;;;17.08;41.57;99836.78;4969776;28;8886;-78
2023/09/29 03:48:06;;;;;;;;;25.80;24.80;;;;;17.09;41.58;99832.34;4968279;28;8950;-76
2023/09/29 03:50:35;;;;;;;;;25.60;23.00;;;;;16.98;42.35;99838.97;4969340;28;8957;-76
2023/09/29 03:53:04;;;;;;;;;25.40;24.60;;;;;16.31;43.39;99826.69;4970264;28;8872;-78
2023/09/29 03:55:33;;;;;;;;;45.75;38.75;;;;;15.67;44.78;99835.34;4973434;28;8871;-79
2023/09/29 03:58:05;;;;;;;;;22.80;22.00;;;;;15.30;45.47;99839.31;4981126;28;8883;-77
2023/09/29 04:00:34;;;;;;;;;26.80;26.40;;;;;14.97;48.00;99838.72;4976231;28;8942;-78
2023/09/29 04:03:03;;;;;;;;;26.20;25.00;;;;;15.22;47.46;99836.94;4973423;28;8856;-78
2023/09/29 04:05:32;;;;;;;;;26.80;26.40;;;;;15.54;47.25;99840.19;4971901;28;8859;-76
2023/09/29 04:08:01;;;;;;;;;31.20;29.00;;;;;15.78;46.45;99834.97;4972563;28;8961;-77
2023/09/29 04:10:30;;;;;;;;;31.75;30.75;;;;;15.96;46.66;99834.25;4974016;28;8867;-79
2023/09/29 04:12:59;;;;;;;;;33.25;31.75;;;;;16.08;45.97;99840.88;4972481;28;8961;-77
2023/09/29 04:15:29;;;;;;;;;49.00;41.25;;;;;16.03;46.55;99838.38;4956048;28;8860;-77
2023/09/29 04:17:58;;;;;;;;;63.25;50.75;;;;;16.06;46.47;99842.72;4956317;28;8867;-78
2023/09/29 04:20:27;;;;;;;;;33.50;31.25;;;;;15.99;46.92;99846.53;4973322;28;9663;-76
2023/09/29 04:22:56;;;;;;;;;30.60;29.20;;;;;16.05;46.24;99845.41;4973285;28;8836;-78
2023/09/29 04:25:25;;;;;;;;;40.50;34.50;;;;;16.08;46.72;99850.59;4971530;28;8876;-77
2023/09/29 04:27:55;;;;;;;;;42.75;36.00;;;;;16.12;46.81;99853.06;4972482;28;8871;-79
2023/09/29 04:30:24;;;;;;;;;39.75;35.00;;;;;16.18;46.83;99854.63;4971916;28;8886;-76
2023/09/29 04:32:54;;;;;;;;;31.20;29.00;;;;;16.24;46.89;99851.72;4954165;28;8859;-78
2023/09/29 04:35:23;;;;;;;;;59.00;47.00;;;;;16.29;47.04;99859.50;4972697;28;8874;-76
2023/09/29 04:37:52;;;;;;;;;46.25;39.50;;;;;16.29;46.38;99851.56;4971603;28;8879;-79
2023/09/29 04:40:21;;;;;;;;;31.20;28.00;;;;;16.32;46.10;99851.41;4972331;28;8855;-79
2023/09/29 04:42:51;;;;;;;;;27.40;27.20;;;;;16.28;46.32;99850.66;4938974;28;8879;-79
2023/09/29 04:45:20;;;;;;;;;31.00;29.60;;;;;16.33;46.54;99856.66;4989159;28;8926;-78
2023/09/29 04:47:49;;;;;;;;;30.50;29.50;;;;;16.32;46.57;99857.59;4977325;28;8868;-76
2023/09/29 04:50:19;;;;;;;;;30.60;28.00;;;;;16.33;46.42;99858.47;4939454;28;8890;-78
2023/09/29 04:52:49;;;;;;;;;31.20;30.00;;;;;16.31;46.53;99858.50;4972050;28;8891;-79
2023/09/29 04:55:18;;;;;;;;;30.80;29.40;;;;;16.33;46.41;99859.31;4972647;28;8852;-77
2023/09/29 04:57:47;;;;;;;;;30.60;28.20;;;;;16.37;46.77;99862.72;4971351;28;8886;-78
2023/09/29 05:00:17;;;;;;;;;32.00;30.50;;;;;16.46;46.74;99861.53;4972001;28;8844;-79
2023/09/29 05:02:46;;;;;;;;;34.25;30.75;;;;;16.42;46.55;99861.59;4954554;28;8867;-78
2023/09/29 05:05:16;;;;;;;;;45.25;37.75;;;;;16.42;46.58;99860.75;4972220;28;8978;-78
2023/09/29 05:07:46;;;;;;;;;43.25;36.75;;;;;16.45;46.72;99857.13;4972240;28;8844;-78
2023/09/29 05:10:15;;;;;;;;;45.50;37.75;;;;;16.46;47.09;99858.88;4973517;28;8867;-79
2023/09/29 05:12:44;;;;;;;;;42.75;36.00;;;;;16.50;46.78;99863.97;4972112;28;8855;-81
2023/09/29 05:15:14;;;;;;;;;33.75;32.00;;;;;16.55;46.19;99862.00;4953922;28;8906;-77
2023/09/29 05:17:42;;;;;;;;;35.00;32.25;;;;;16.65;45.89;99862.50;4971028;28;8868;-77
2023/09/29 05:20:20;;;;;;;;;43.25;36.00;;;;;16.72;46.33;99858.66;4971810;28;9018;-77
2023/09/29 05:22:50;;;;;;;;;48.75;38.50;;;;;16.73;46.54;99865.69;4972389;28;8863;-80
2023/09/29 05:25:19;;;;;;;;;46.25;38.50;;;;;16.78;46.51;99868.16;4973125;28;8863;-79
2023/09/29 05:27:47;;;;;;;;;45.50;39.00;;;;;16.82;46.46;99863.59;4972953;28;8905;-79
2023/09/29 05:30:18;;;;;;;;;52.25;43.00;;;;;16.83;46.28;99866.16;4937709;28;8895;-78
2023/09/29 05:32:47;;;;;;;;;50.25;41.25;;;;;16.93;46.63;99867.53;4928006;28;8899;-78
2023/09/29 05:35:16;;;;;;;;;50.00;42.00;;;;;17.00;46.52;99863.69;4972511;28;8895;-78
2023/09/29 05:37:46;;;;;;;;;50.25;41.75;;;;;17.10;46.16;99861.50;4971278;28;8871;-78
2023/09/29 05:40:17;;;;;;;;;48.50;41.00;;;;;17.20;46.68;99865.47;4954759;28;8843;-76
2023/09/29 05:42:46;;;;;;;;;40.50;35.25;;;;;17.30;46.83;99870.41;4972542;28;8874;-75
2023/09/29 05:45:21;;;;;;;;;42.75;35.75;;;;;17.45;45.92;99868.88;4972739;28;8929;-80
2023/09/29 05:47:51;;;;;;;;;43.75;37.00;;;;;17.55;45.40;99871.06;4972064;28;8840;-77
2023/09/29 05:50:22;;;;;;;;;45.00;36.25;;;;;17.66;44.91;99867.91;4988173;28;8887;-78
2023/09/29 05:52:51;;;;;;;;;43.75;36.50;;;;;17.73;44.42;99872.00;4985032;28;8918;-78
2023/09/29 05:55:40;;;;;;;;;43.25;37.75;;;;;17.89;43.45;99863.31;4972668;28;8870;-79
2023/09/29 05:58:08;;;;;;;;;34.50;32.50;;;;;18.01;43.01;99868.09;4971249;28;8860;-78
2023/09/29 06:00:38;;;;;;;;;38.50;35.25;;;;;18.08;42.38;99866.91;4970640;28;8883;-81
2023/09/29 06:03:06;;;;;;;;;44.25;36.75;;;;;18.20;42.71;99875.25;4970530;28;8867;-79
2023/09/29 06:05:36;;;;;;;;;35.25;32.25;;;;;18.35;42.01;99878.03;4951849;28;8847;-77
2023/09/29 06:08:06;;;;;;;;;36.25;33.50;;;;;18.48;41.98;99882.78;4969722;28;8877;-78
2023/09/29 06:10:57;;;;;;;;;40.75;36.25;;;;;18.64;42.01;99885.53;4943867;28;8861;-79
2023/09/29 06:13:25;;;;;;;;;47.75;40.00;;;;;18.75;41.80;99884.06;4971495;28;8915;-78
2023/09/29 06:15:56;;;;;;;;;47.00;37.50;;;;;18.89;41.72;99888.75;4987791;28;9158;-77
2023/09/29 06:18:27;;;;;;;;;47.00;38.75;;;;;18.99;41.85;99894.47;4988409;28;8877;-77
2023/09/29 06:20:56;;;;;;;;;41.50;37.00;;;;;19.09;41.12;99887.72;4987000;28;8902;-77
2023/09/29 06:23:25;;;;;;;;;38.25;34.50;;;;;19.20;40.81;99881.00;4951897;28;9936;-79
2023/09/29 06:25:58;;;;;;;;;42.50;37.25;;;;;19.41;40.71;99887.00;4930532;29;9675;-81
2023/09/29 06:28:27;;;;;;;;;33.75;32.50;;;;;19.40;40.14;99891.47;4929260;29;8880;-76
2023/09/29 06:30:57;;;;;;;;;42.25;35.75;;;;;19.50;40.09;99890.06;4928751;29;8876;-78
2023/09/29 06:33:26;;;;;;;;;39.00;34.50;;;;;19.58;40.24;99891.50;4929374;29;9072;-77
2023/09/29 06:35:56;;;;;;;;;36.00;33.50;;;;;19.70;39.72;99889.00;4928949;29;8869;-79
2023/09/29 06:38:25;;;;;;;;;32.75;30.75;;;;;19.79;38.80;99885.00;4936256;29;8872;-77
2023/09/29 06:40:54;;;;;;;;;41.75;37.00;;;;;19.75;39.01;99886.09;4930318;29;8888;-78
2023/09/29 06:43:24;;;;;;;;;36.75;32.75;;;;;19.82;38.09;99889.28;4930025;29;8902;-78
2023/09/29 06:45:53;;;;;;;;;35.75;33.00;;;;;19.86;39.46;99897.06;4926890;29;8881;-78
2023/09/29 06:48:29;;;;;;;;;27.25;26.25;;;;;20.00;39.84;99900.78;4947574;29;8871;-78
2023/09/29 06:50:59;;;;;;;;;38.00;33.75;;;;;20.10;39.71;99904.66;4956741;28;8910;-80
2023/09/29 06:53:31;;;;;;;;;39.20;32.60;;;;;20.11;39.81;99901.06;4952841;28;8981;-77
2023/09/29 06:56:00;;;;;;;;;35.80;32.20;;;;;19.90;40.17;99905.75;4935578;28;9610;-76
2023/09/29 06:58:30;;;;;;;;;35.60;32.40;;;;;19.96;40.63;99908.09;4966226;28;8899;-78
2023/09/29 07:01:00;;;;;;;;;35.20;31.80;;;;;19.62;41.14;99917.91;4950214;28;8890;-79
2023/09/29 07:03:31;;;;;;;;;34.80;32.20;;;;;19.73;41.35;99913.81;4966739;28;8929;-78
2023/09/29 07:06:01;;;;;;;;;35.00;32.00;;;;;19.79;41.26;99922.34;4967066;28;8949;-77
2023/09/29 07:08:30;;;;;;;;;38.50;34.50;;;;;19.90;40.60;99922.63;4920386;28;8859;-78
2023/09/29 07:10:59;;;;;;;;;34.00;30.40;;;;;19.90;41.21;99925.28;4951615;28;8860;-77
2023/09/29 07:13:28;;;;;;;;;30.40;29.20;;;;;19.94;41.31;99928.66;4966578;28;9593;-78
2023/09/29 07:15:59;;;;;;;;;34.50;32.75;;;;;20.17;40.76;99926.53;4916549;28;8905;-78
2023/09/29 07:18:28;;;;;;;;;38.80;34.00;;;;;20.06;40.65;99921.78;4981277;28;8864;-78
2023/09/29 07:20:58;;;;;;;;;37.40;32.80;;;;;20.14;40.89;99922.25;4968477;28;8919;-79
2023/09/29 07:23:28;;;;;;;;;43.50;36.50;;;;;20.35;40.79;99920.22;4986835;28;8880;-78
2023/09/29 07:25:57;;;;;;;;;33.60;31.20;;;;;20.50;40.40;99918.50;4987354;28;9094;-78
2023/09/29 07:28:26;;;;;;;;;36.00;31.75;;;;;20.72;39.87;99918.13;4939638;28;9019;-78
2023/09/29 07:30:55;;;;;;;;;39.40;33.60;;;;;20.90;39.58;99926.03;4980771;28;8855;-79
2023/09/29 07:33:25;;;;;;;;;32.00;30.25;;;;;20.99;39.74;99923.72;4967684;28;8868;-79
2023/09/29 07:35:54;;;;;;;;;42.00;34.50;;;;;20.92;39.20;99930.38;4968001;28;8990;-78
2023/09/29 07:38:23;;;;;;;;;43.00;35.00;;;;;20.93;39.05;99924.06;4958238;28;8891;-78
2023/09/29 07:40:52;;;;;;;;;40.40;33.60;;;;;20.92;38.46;99927.72;4970502;28;8875;-78
2023/09/29 07:43:21;;;;;;;;;37.40;33.60;;;;;21.13;38.21;99922.06;4953236;28;8938;-79
2023/09/29 07:45:50;;;;;;;;;36.40;32.80;;;;;21.31;37.45;99922.75;4987887;28;8855;-78
2023/09/29 07:48:21;;;;;;;;;35.40;32.20;;;;;21.50;37.39;99927.84;4936610;28;8965;-78
2023/09/29 07:50:52;;;;;;;;;36.75;33.75;;;;;21.70;36.99;99924.88;4968691;28;8934;-78
2023/09/29 07:53:20;;;;;;;;;35.40;32.20;;;;;21.86;36.37;99927.44;4951062;28;8855;-77
2023/09/29 07:55:49;;;;;;;;;35.00;32.20;;;;;21.98;35.81;99940.06;4969539;28;8843;-77
2023/09/29 07:58:18;;;;;;;;;40.80;33.40;;;;;22.15;36.27;99928.31;4969349;28;8883;-78
2023/09/29 08:00:47;;;;;;;;;37.50;34.00;;;;;22.27;35.98;99939.22;4969236;28;8963;-78
2023/09/29 08:03:16;;;;;;;;;35.75;32.25;;;;;22.37;35.72;99935.88;4969815;28;8864;-78
2023/09/29 08:05:45;;;;;;;;;35.00;32.40;;;;;22.46;35.57;99944.25;4968197;28;8912;-77
2023/09/29 08:08:15;;;;;;;;;38.25;34.75;;;;;22.58;35.53;99936.31;4969596;28;8897;-79
2023/09/29 08:10:44;;;;;;;;;42.25;35.25;;;;;22.56;35.64;99942.69;4968090;28;8855;-78
2023/09/29 08:13:13;;;;;;;;;36.25;33.75;;;;;22.71;35.31;99935.47;4951487;28;8867;-78
2023/09/29 08:15:42;;;;;;;;;35.20;32.00;;;;;22.85;34.46;99935.44;4968179;28;8874;-78
2023/09/29 08:18:13;;;;;;;;;34.60;32.60;;;;;22.96;34.46;99932.94;4935217;28;8856;-78
2023/09/29 08:20:42;;;;;;;;;35.60;31.60;;;;;23.07;34.59;99942.97;4969586;28;8875;-79
2023/09/29 08:23:10;;;;;;;;;33.75;30.50;;;;;23.15;34.02;99935.25;4968013;28;8986;-79
2023/09/29 08:25:43;;;;;;;;;33.00;30.60;;;;;23.22;33.55;99930.31;4969670;28;8864;-79
2023/09/29 08:28:13;;;;;;;;;33.20;30.00;;;;;23.30;33.38;99935.16;4970466;28;8883;-79
2023/09/29 08:30:42;;;;;;;;;30.40;29.60;;;;;23.35;33.12;99931.19;4970146;28;8864;-78
2023/09/29 08:33:11;;;;;;;;;28.60;28.60;;;;;23.43;33.17;99927.13;4967171;28;9012;-71
2023/09/29 08:35:56;;;;;;;;;31.25;29.00;;;;;23.54;33.05;99928.13;4970899;28;8898;-71
2023/09/29 08:38:25;;;;;;;;;29.00;28.20;;;;;23.43;33.35;99932.50;4971045;28;8998;-76
2023/09/29 08:40:56;;;;;;;;;29.80;29.40;;;;;23.64;33.48;99928.38;4986656;28;8875;-77
2023/09/29 08:43:29;;;;;;;;;31.20;30.40;;;;;23.73;32.60;99924.16;4986430;28;8861;-76
2023/09/29 08:45:59;;;;;;;;;35.50;31.75;;;;;23.69;33.44;99925.34;4986417;28;9054;-78
2023/09/29 08:48:29;;;;;;;;;36.50;31.75;;;;;23.26;34.13;99923.81;4969544;28;8897;-77
2023/09/29 08:51:01;;;;;;;;;35.25;32.00;;;;;23.34;33.58;99929.50;4908871;28;8845;-77
2023/09/29 08:53:33;;;;;;;;;33.00;30.60;;;;;23.52;33.23;99921.16;4950712;28;8861;-76
2023/09/29 08:56:11;;;;;;;;;34.20;31.80;;;;;23.72;33.11;99917.94;4953692;28;8934;-76
2023/09/29 08:58:40;;;;;;;;;35.75;31.75;;;;;23.84;32.93;99921.59;4904931;28;8853;-76
2023/09/29 09:01:09;;;;;;;;;36.00;32.60;;;;;23.91;32.77;99928.25;4950844;28;8975;-78
2023/09/29 09:03:38;;;;;;;;;29.20;28.00;;;;;24.01;32.49;99928.44;4951010;28;8881;-77
2023/09/29 09:06:22;;;;;;;;;29.80;27.40;;;;;24.30;32.98;99928.19;4950636;28;8955;-76
2023/09/29 09:08:52;;;;;;;;;27.40;27.40;;;;;24.29;32.11;99923.81;4950745;28;9749;-76
2023/09/29 09:11:23;;;;;;;;;30.00;29.80;;;;;23.97;32.46;99926.94;4954443;28;8874;-76
2023/09/29 09:14:03;;;;;;;;;25.60;24.00;;;;;23.56;33.18;99931.59;4969803;28;8883;-76
2023/09/29 09:16:32;;;;;;;;;20.40;20.00;;;;;22.81;34.07;99936.63;4969827;28;8955;-77
2023/09/29 09:19:09;;;;;;;;;26.20;24.80;;;;;22.88;34.18;99931.69;4970655;28;9041;-76
2023/09/29 09:21:38;;;;;;;;;26.40;26.40;;;;;22.93;35.09;99929.59;4972884;28;8874;-79
2023/09/29 09:24:18;;;;;;;;;29.80;25.20;;;;;22.29;37.25;99929.28;4972970;28;8871;-75
2023/09/29 09:26:50;;;;;;;;;31.00;29.20;;;;;22.56;37.28;99927.50;4978830;28;9019;-75
2023/09/29 09:29:19;;;;;;;;;27.20;27.20;;;;;22.65;36.88;99925.19;4988026;28;8949;-77
2023/09/29 09:31:51;;;;;;;;;35.00;29.80;;;;;22.91;37.20;99928.84;4977375;28;8852;-76
2023/09/29 09:34:20;;;;;;;;;30.60;29.60;;;;;23.16;37.28;99922.69;4972743;28;8847;-76
2023/09/29 09:36:51;;;;;;;;;25.40;22.80;;;;;23.37;36.34;99920.34;4972272;28;8985;-76
2023/09/29 09:39:24;;;;;;;;;24.00;23.00;;;;;23.52;36.10;99926.53;4971880;28;8868;-75
2023/09/29 09:41:56;;;;;;;;;24.00;22.80;;;;;23.69;35.71;99920.00;4970610;28;8855;-78
2023/09/29 09:44:26;;;;;;;;;28.00;26.00;;;;;23.86;35.72;99924.16;4972171;28;9701;-76
2023/09/29 09:47:00;;;;;;;;;26.20;24.20;;;;;23.98;35.22;99923.31;4971800;28;8879;-75
2023/09/29 09:49:36;;;;;;;;;26.00;23.80;;;;;23.70;34.84;99925.25;4971923;28;9626;-76
2023/09/29 09:52:08;;;;;;;;;24.00;23.60;;;;;23.22;35.45;99932.13;4971576;28;8887;-77
2023/09/29 09:54:47;;;;;;;;;23.20;22.80;;;;;23.21;34.90;99927.75;4971544;28;8883;-78
2023/09/29 09:57:24;;;;;;;;;25.40;22.00;;;;;23.21;35.05;99928.59;4971230;28;9610;-76
2023/09/29 09:59:56;;;;;;;;;21.80;20.80;;;;;22.72;35.42;99927.34;4971299;28;8965;-76
2023/09/29 10:02:26;;;;;;;;;24.60;24.60;;;;;23.22;36.10;99924.94;4971858;28;8965;-76
2023/09/29 10:04:56;;;;;;;;;28.40;24.40;;;;;23.24;36.13;99924.84;4971471;28;8970;-79
2023/09/29 10:07:25;;;;;;;;;24.40;24.40;;;;;22.72;37.50;99924.66;4971383;28;8867;-77
2023/09/29 10:09:54;;;;;;;;;31.40;27.60;;;;;22.40;37.86;99924.94;4971455;28;9026;-77
2023/09/29 10:12:27;;;;;;;;;23.40;22.00;;;;;22.64;37.05;99921.63;4971273;28;8860;-77
2023/09/29 10:14:56;;;;;;;;;24.20;22.20;;;;;22.74;36.47;99925.41;4969823;28;8926;-77
2023/09/29 10:17:26;;;;;;;;;23.00;22.00;;;;;23.18;35.56;99915.41;4971530;28;8867;-77
2023/09/29 10:19:55;;;;;;;;;23.20;23.20;;;;;23.45;35.76;99915.34;4970985;28;9636;-77
2023/09/29 10:22:26;;;;;;;;;25.40;24.20;;;;;23.51;36.83;99912.22;4967803;28;8847;-77
2023/09/29 10:24:56;;;;;;;;;27.00;25.40;;;;;23.68;36.21;99918.28;4936560;28;8871;-75
2023/09/29 10:27:30;;;;;;;;;28.60;28.20;;;;;23.16;36.71;99915.50;4970137;28;8860;-76
2023/09/29 10:30:16;;;;;;;;;28.60;26.20;;;;;23.04;36.71;99907.44;4970064;28;8963;-75
2023/09/29 10:32:48;;;;;;;;;27.80;25.80;;;;;22.89;36.88;99902.13;4969397;28;8889;-76
2023/09/29 10:35:19;;;;;;;;;23.60;22.80;;;;;22.96;36.65;99903.44;4980060;28;8876;-75
2023/09/29 10:37:54;;;;;;;;;27.60;26.20;;;;;22.54;37.09;99907.13;4989032;28;8844;-76
2023/09/29 10:40:28;;;;;;;;;22.00;22.00;;;;;22.89;36.36;99896.78;4985272;28;8939;-76
2023/09/29 10:43:02;;;;;;;;;24.60;24.60;;;;;23.42;36.18;99890.56;4956174;28;8872;-75
2023/09/29 10:45:36;;;;;;;;;26.80;25.00;;;;;23.40;34.93;99896.00;4974421;28;9601;-75
2023/09/29 10:48:08;;;;;;;;;25.80;24.80;;;;;23.46;35.37;99900.09;4971357;28;9076;-76
2023/09/29 10:50:41;;;;;;;;;27.20;26.80;;;;;23.41;35.17;99891.50;4970811;28;8934;-77
2023/09/29 10:53:11;;;;;;;;;25.00;22.80;;;;;23.10;35.52;99888.25;4970737;28;8867;-78
2023/09/29 10:55:44;;;;;;;;;23.60;23.20;;;;;23.68;34.56;99891.44;4951705;28;8998;-77
2023/09/29 10:58:16;;;;;;;;;24.80;24.80;;;;;24.05;34.14;99880.75;4969925;28;9652;-76
2023/09/29 11:00:47;;;;;;;;;20.60;20.40;;;;;24.34;33.73;99882.22;4969934;28;8856;-76
2023/09/29 11:03:18;;;;;;;;;28.40;26.20;;;;;24.70;32.75;99880.44;4970887;28;8874;-75
2023/09/29 11:05:51;;;;;;;;;22.40;21.00;;;;;24.84;32.19;99884.81;4969569;28;8879;-77
2023/09/29 11:08:28;;;;;;;;;21.20;19.60;;;;;24.99;31.89;99890.00;4968126;28;8859;-76
2023/09/29 11:10:59;;;;;;;;;19.40;19.40;;;;;24.36;32.52;99884.78;4969406;28;8982;-76
2023/09/29 11:13:31;;;;;;;;;23.20;21.20;;;;;24.15;33.09;99873.78;4952948;28;9751;-75
2023/09/29 11:16:00;;;;;;;;;17.80;17.80;;;;;24.47;32.75;99878.59;4967579;28;8860;-76
2023/09/29 11:18:31;;;;;;;;;19.40;19.20;;;;;24.83;31.50;99869.66;4969577;28;9661;-75
2023/09/29 11:21:05;;;;;;;;;22.80;22.80;;;;;24.83;31.55;99875.03;4969402;28;9653;-75
2023/09/29 11:23:44;;;;;;;;;20.80;20.20;;;;;24.92;31.18;99873.47;4980804;28;8894;-76
2023/09/29 11:26:14;;;;;;;;;19.40;19.40;;;;;25.01;30.98;99867.38;4984917;28;8906;-77
2023/09/29 11:28:47;;;;;;;;;22.40;22.40;;;;;25.10;30.71;99869.38;4973226;28;8855;-78
2023/09/29 11:31:16;;;;;;;;;22.80;22.80;;;;;24.75;31.20;99861.31;4971397;28;8906;-77
2023/09/29 11:33:46;;;;;;;;;21.00;20.60;;;;;25.23;31.29;99860.38;4968535;28;8855;-78
2023/09/29 11:36:17;;;;;;;;;23.60;21.60;;;;;25.40;30.46;99853.72;4963641;28;8907;-75
2023/09/29 11:38:46;;;;;;;;;20.20;19.40;;;;;25.45;29.70;99851.50;4967614;28;8874;-77